sensor_id;sensor_type;location;lat;lon;timestamp;pressure;altitude;pressure_sealevel;temperature;humidity
27984;BME280;15317;50.360;8.726;2023-05-11T00:02:39;99360.34;;;10.61;100.00
27984;BME280;15317;50.360;8.726;2023-05-11T00:07:43;99365.97;;;10.68;100.00
27984;BME280;15317;50.360;8.726;2023-05-11T00:12:48;99368.88;;;10.75;100.00
27984;BME280;15317;50.360;8.726;2023-05-11T00:17:51;99376.00;;;10.76;100.00
27984;BME280;15317;50.360;8.726;2023-05-11T00:22:54;99368.56;;;10.78;100.00
27984;BME280;15317;50.360;8.726;2023-05-11T00:27:59;99368.22;;;10.81;100.00
27984;BME280;15317;50.360;8.726;2023-05-11T00:33:02;99365.16;;;10.76;100.00
27984;BME280;15317;50.360;8.726;2023-05-11T00:38:06;99353.56;;;10.65;100.00
27984;BME280;15317;50.360;8.726;2023-05-11T00:43:10;99359.69;;;10.67;100.00
27984;BME280;15317;50.360;8.726;2023-05-11T00:48:14;99351.66;;;10.58;100.00
27984;BME280;15317;50.360;8.726;2023-05-11T00:53:17;99341.47;;;10.60;100.00
27984;BME280;15317;50.360;8.726;2023-05-11T00:58:23;99344.34;;;10.58;100.00
27984;BME280;15317;50.360;8.726;2023-05-11T01:03:26;99344.69;;;10.55;100.00
27984;BME280;15317;50.360;8.726;2023-05-11T01:08:37;99343.66;;;10.48;100.00
27984;BME280;15317;50.360;8.726;2023-05-11T01:13:46;99338.22;;;10.48;100.00
27984;BME280;15317;50.360;8.726;2023-05-11T01:18:55;99338.88;;;10.42;100.00
27984;BME280;15317;50.360;8.726;2023-05-11T01:24:19;99337.16;;;10.41;100.00
27984;BME280;15317;50.360;8.726;2023-05-11T01:29:40;99342.41;;;10.35;100.00
27984;BME280;15317;50.360;8.726;2023-05-11T01:34:47;99335.56;;;10.30;100.00
27984;BME280;15317;50.360;8.726;2023-05-11T01:39:56;99332.50;;;10.25;100.00
27984;BME280;15317;50.360;8.726;2023-05-11T01:45:00;99330.97;;;10.23;100.00
27984;BME280;15317;50.360;8.726;2023-05-11T01:50:07;99333.75;;;10.13;100.00
27984;BME280;15317;50.360;8.726;2023-05-11T01:55:12;99341.84;;;10.05;100.00
27984;BME280;15317;50.360;8.726;2023-05-11T02:00:17;99339.06;;;9.97;100.00
27984;BME280;15317;50.360;8.726;2023-05-11T02:05:23;99330.34;;;9.85;100.00
27984;BME280;15317;50.360;8.726;2023-05-11T02:10:27;99336.41;;;9.79;100.00
27984;BME280;15317;50.360;8.726;2023-05-11T02:15:32;99347.53;;;9.68;100.00
27984;BME280;15317;50.360;8.726;2023-05-11T02:20:38;99353.56;;;9.62;100.00
27984;BME280;15317;50.360;8.726;2023-05-11T02:25:44;99347.38;;;9.52;100.00
27984;BME280;15317;50.360;8.726;2023-05-11T02:30:50;99350.47;;;9.57;100.00
27984;BME280;15317;50.360;8.726;2023-05-11T02:35:57;99356.88;;;9.48;100.00
27984;BME280;15317;50.360;8.726;2023-05-11T02:41:04;99352.03;;;9.42;100.00
27984;BME280;15317;50.360;8.726;2023-05-11T02:46:12;99349.09;;;9.35;100.00
27984;BME280;15317;50.360;8.726;2023-05-11T02:51:21;99359.72;;;9.29;100.00
27984;BME280;15317;50.360;8.726;2023-05-11T02:56:26;99361.13;;;9.33;100.00
27984;BME280;15317;50.360;8.726;2023-05-11T03:01:32;99361.41;;;9.30;100.00
27984;BME280;15317;50.360;8.726;2023-05-11T03:06:36;99353.28;;;9.30;100.00
27984;BME280;15317;50.360;8.726;2023-05-11T03:11:40;99348.81;;;9.21;100.00
27984;BME280;15317;50.360;8.726;2023-05-11T03:16:44;99345.06;;;9.22;100.00
27984;BME280;15317;50.360;8.726;2023-05-11T03:21:50;99349.97;;;9.18;100.00
27984;BME280;15317;50.360;8.726;2023-05-11T03:26:55;99349.03;;;9.09;100.00
27984;BME280;15317;50.360;8.726;2023-05-11T03:31:59;99354.44;;;9.09;100.00
27984;BME280;15317;50.360;8.726;2023-05-11T03:37:04;99355.38;;;9.18;100.00
27984;BME280;15317;50.360;8.726;2023-05-11T03:42:09;99365.50;;;9.16;100.00
27984;BME280;15317;50.360;8.726;2023-05-11T03:47:14;99351.97;;;9.16;100.00
27984;BME280;15317;50.360;8.726;2023-05-11T03:52:21;99353.19;;;9.22;100.00
27984;BME280;15317;50.360;8.726;2023-05-11T03:57:25;99350.56;;;9.30;100.00
27984;BME280;15317;50.360;8.726;2023-05-11T04:02:28;99349.66;;;9.39;100.00
27984;BME280;15317;50.360;8.726;2023-05-11T04:07:34;99355.44;;;9.44;100.00
27984;BME280;15317;50.360;8.726;2023-05-11T04:12:38;99355.53;;;9.52;100.00
27984;BME280;15317;50.360;8.726;2023-05-11T04:17:41;99357.34;;;9.69;100.00
27984;BME280;15317;50.360;8.726;2023-05-11T04:22:46;99358.75;;;9.73;100.00
27984;BME280;15317;50.360;8.726;2023-05-11T04:27:49;99366.09;;;9.81;100.00
27984;BME280;15317;50.360;8.726;2023-05-11T04:32:53;99366.75;;;9.75;100.00
27984;BME280;15317;50.360;8.726;2023-05-11T04:37:57;99377.31;;;9.86;100.00
27984;BME280;15317;50.360;8.726;2023-05-11T04:43:00;99365.88;;;9.74;100.00
27984;BME280;15317;50.360;8.726;2023-05-11T04:48:04;99363.63;;;9.70;100.00
27984;BME280;15317;50.360;8.726;2023-05-11T04:53:09;99370.53;;;9.82;100.00
27984;BME280;15317;50.360;8.726;2023-05-11T04:58:12;99376.97;;;9.81;100.00
27984;BME280;15317;50.360;8.726;2023-05-11T05:03:15;99371.75;;;9.87;100.00
27984;BME280;15317;50.360;8.726;2023-05-11T05:08:20;99377.25;;;9.96;100.00
27984;BME280;15317;50.360;8.726;2023-05-11T05:13:23;99377.28;;;10.04;100.00
27984;BME280;15317;50.360;8.726;2023-05-11T05:18:26;99386.47;;;10.11;100.00
27984;BME280;15317;50.360;8.726;2023-05-11T05:23:31;99392.38;;;10.24;100.00
27984;BME280;15317;50.360;8.726;2023-05-11T05:28:35;99388.19;;;10.29;100.00
27984;BME280;15317;50.360;8.726;2023-05-11T05:33:38;99389.41;;;10.35;100.00
27984;BME280;15317;50.360;8.726;2023-05-11T05:38:43;99394.50;;;10.38;100.00
27984;BME280;15317;50.360;8.726;2023-05-11T05:43:46;99401.38;;;10.58;100.00
27984;BME280;15317;50.360;8.726;2023-05-11T05:48:49;99410.28;;;10.68;100.00
27984;BME280;15317;50.360;8.726;2023-05-11T05:53:53;99413.44;;;10.90;100.00
27984;BME280;15317;50.360;8.726;2023-05-11T05:58:57;99408.41;;;11.11;100.00
27984;BME280;15317;50.360;8.726;2023-05-11T06:04:01;99416.94;;;11.24;100.00
27984;BME280;15317;50.360;8.726;2023-05-11T06:09:06;99414.56;;;11.29;100.00
27984;BME280;15317;50.360;8.726;2023-05-11T06:14:09;99410.19;;;11.44;100.00
27984;BME280;15317;50.360;8.726;2023-05-11T06:19:13;99409.19;;;11.62;100.00
27984;BME280;15317;50.360;8.726;2023-05-11T06:24:18;99400.69;;;11.57;100.00
27984;BME280;15317;50.360;8.726;2023-05-11T06:29:21;99394.41;;;11.72;100.00
27984;BME280;15317;50.360;8.726;2023-05-11T06:34:24;99393.56;;;11.72;100.00
27984;BME280;15317;50.360;8.726;2023-05-11T06:39:28;99386.78;;;11.76;100.00
27984;BME280;15317;50.360;8.726;2023-05-11T06:44:32;99379.97;;;11.88;100.00
27984;BME280;15317;50.360;8.726;2023-05-11T06:49:35;99376.22;;;11.97;100.00
27984;BME280;15317;50.360;8.726;2023-05-11T06:54:40;99377.75;;;12.08;100.00
27984;BME280;15317;50.360;8.726;2023-05-11T06:59:43;99392.50;;;12.30;100.00
27984;BME280;15317;50.360;8.726;2023-05-11T07:04:46;99387.75;;;12.40;100.00
27984;BME280;15317;50.360;8.726;2023-05-11T07:09:51;99376.53;;;12.26;100.00
27984;BME280;15317;50.360;8.726;2023-05-11T07:14:54;99386.50;;;12.58;100.00
27984;BME280;15317;50.360;8.726;2023-05-11T07:19:58;99369.97;;;12.60;100.00
27984;BME280;15317;50.360;8.726;2023-05-11T07:25:03;99379.47;;;12.64;100.00
27984;BME280;15317;50.360;8.726;2023-05-11T07:30:07;99370.88;;;12.83;100.00
27984;BME280;15317;50.360;8.726;2023-05-11T07:35:10;99367.16;;;12.76;100.00
27984;BME280;15317;50.360;8.726;2023-05-11T07:40:15;99369.06;;;12.76;100.00
27984;BME280;15317;50.360;8.726;2023-05-11T07:45:19;99373.97;;;12.80;100.00
27984;BME280;15317;50.360;8.726;2023-05-11T07:50:22;99377.16;;;12.92;100.00
27984;BME280;15317;50.360;8.726;2023-05-11T07:55:27;99374.94;;;12.95;100.00
27984;BME280;15317;50.360;8.726;2023-05-11T08:00:31;99371.47;;;13.10;100.00
27984;BME280;15317;50.360;8.726;2023-05-11T08:05:34;99365.22;;;12.93;100.00
27984;BME280;15317;50.360;8.726;2023-05-11T08:10:40;99362.56;;;12.77;100.00
27984;BME280;15317;50.360;8.726;2023-05-11T08:15:43;99365.41;;;12.91;100.00
27984;BME280;15317;50.360;8.726;2023-05-11T08:20:46;99367.81;;;12.86;100.00
27984;BME280;15317;50.360;8.726;2023-05-11T08:25:52;99371.56;;;12.85;100.00
27984;BME280;15317;50.360;8.726;2023-05-11T08:30:57;99359.81;;;12.85;100.00
27984;BME280;15317;50.360;8.726;2023-05-11T08:36:01;99362.50;;;12.93;100.00
27984;BME280;15317;50.360;8.726;2023-05-11T08:41:06;99359.59;;;12.94;100.00
27984;BME280;15317;50.360;8.726;2023-05-11T08:46:10;99372.78;;;13.22;100.00
27984;BME280;15317;50.360;8.726;2023-05-11T08:51:16;99365.78;;;13.19;100.00
27984;BME280;15317;50.360;8.726;2023-05-11T08:56:21;99370.19;;;13.28;100.00
27984;BME280;15317;50.360;8.726;2023-05-11T09:01:27;99363.56;;;13.23;100.00
27984;BME280;15317;50.360;8.726;2023-05-11T09:06:31;99372.19;;;13.34;100.00
27984;BME280;15317;50.360;8.726;2023-05-11T09:11:37;99367.09;;;13.54;100.00
27984;BME280;15317;50.360;8.726;2023-05-11T09:16:41;99364.31;;;13.62;100.00
27984;BME280;15317;50.360;8.726;2023-05-11T09:21:45;99365.28;;;13.47;100.00
27984;BME280;15317;50.360;8.726;2023-05-11T09:27:07;99362.72;;;13.68;100.00
27984;BME280;15317;50.360;8.726;2023-05-11T09:32:11;99363.59;;;13.68;100.00
27984;BME280;15317;50.360;8.726;2023-05-11T09:37:16;99361.75;;;13.83;100.00
27984;BME280;15317;50.360;8.726;2023-05-11T09:42:21;99370.38;;;13.72;100.00
27984;BME280;15317;50.360;8.726;2023-05-11T09:47:24;99365.53;;;13.82;100.00
27984;BME280;15317;50.360;8.726;2023-05-11T09:52:28;99360.75;;;13.99;100.00
27984;BME280;15317;50.360;8.726;2023-05-11T09:57:34;99365.34;;;14.36;100.00
27984;BME280;15317;50.360;8.726;2023-05-11T10:02:37;99352.47;;;14.59;100.00
27984;BME280;15317;50.360;8.726;2023-05-11T10:07:40;99343.34;;;14.52;100.00
27984;BME280;15317;50.360;8.726;2023-05-11T10:12:45;99350.59;;;14.45;100.00
27984;BME280;15317;50.360;8.726;2023-05-11T10:17:49;99347.66;;;14.47;100.00
27984;BME280;15317;50.360;8.726;2023-05-11T10:22:54;99340.06;;;14.34;100.00
27984;BME280;15317;50.360;8.726;2023-05-11T10:27:59;99338.50;;;14.54;100.00
27984;BME280;15317;50.360;8.726;2023-05-11T10:33:02;99334.72;;;14.85;100.00
27984;BME280;15317;50.360;8.726;2023-05-11T10:38:09;99341.06;;;15.21;100.00
27984;BME280;15317;50.360;8.726;2023-05-11T10:43:25;99330.78;;;15.45;100.00
27984;BME280;15317;50.360;8.726;2023-05-11T10:48:50;99331.91;;;15.71;100.00
27984;BME280;15317;50.360;8.726;2023-05-11T10:54:04;99328.06;;;15.66;100.00
27984;BME280;15317;50.360;8.726;2023-05-11T10:59:38;99318.34;;;16.12;100.00
27984;BME280;15317;50.360;8.726;2023-05-11T11:04:46;99323.00;;;16.81;88.74
27984;BME280;15317;50.360;8.726;2023-05-11T11:09:53;99323.22;;;17.40;87.65
27984;BME280;15317;50.360;8.726;2023-05-11T11:15:00;99322.41;;;17.46;89.31
27984;BME280;15317;50.360;8.726;2023-05-11T11:20:04;99311.84;;;17.56;91.55
27984;BME280;15317;50.360;8.726;2023-05-11T11:25:08;99305.19;;;17.05;86.28
27984;BME280;15317;50.360;8.726;2023-05-11T11:30:17;99299.28;;;16.60;88.92
27984;BME280;15317;50.360;8.726;2023-05-11T11:35:45;99308.47;;;16.52;97.61
27984;BME280;15317;50.360;8.726;2023-05-11T11:40:50;99305.03;;;16.37;94.79
27984;BME280;15317;50.360;8.726;2023-05-11T11:45:56;99299.78;;;16.70;95.49
27984;BME280;15317;50.360;8.726;2023-05-11T11:51:03;99299.88;;;16.96;94.33
27984;BME280;15317;50.360;8.726;2023-05-11T11:56:35;99297.97;;;16.97;95.00
27984;BME280;15317;50.360;8.726;2023-05-11T12:01:35;99293.63;;;16.68;91.57
27984;BME280;15317;50.360;8.726;2023-05-11T12:06:40;99299.81;;;16.83;94.53
27984;BME280;15317;50.360;8.726;2023-05-11T12:11:45;99292.25;;;16.51;91.53
27984;BME280;15317;50.360;8.726;2023-05-11T12:17:01;99292.88;;;16.53;89.54
27984;BME280;15317;50.360;8.726;2023-05-11T12:22:05;99290.31;;;16.45;91.24
27984;BME280;15317;50.360;8.726;2023-05-11T12:27:08;99287.13;;;16.41;94.84
27984;BME280;15317;50.360;8.726;2023-05-11T12:32:13;99289.25;;;16.46;94.86
27984;BME280;15317;50.360;8.726;2023-05-11T12:37:16;99284.59;;;16.40;99.76
27984;BME280;15317;50.360;8.726;2023-05-11T12:42:19;99290.94;;;16.12;99.69
27984;BME280;15317;50.360;8.726;2023-05-11T12:47:24;99283.00;;;15.90;100.00
27984;BME280;15317;50.360;8.726;2023-05-11T12:52:28;99294.31;;;15.59;100.00
27984;BME280;15317;50.360;8.726;2023-05-11T12:57:32;99295.59;;;15.20;100.00
27984;BME280;15317;50.360;8.726;2023-05-11T13:02:42;99301.16;;;14.91;100.00
27984;BME280;15317;50.360;8.726;2023-05-11T13:07:46;99314.38;;;14.73;100.00
27984;BME280;15317;50.360;8.726;2023-05-11T13:12:51;99307.63;;;14.39;100.00
27984;BME280;15317;50.360;8.726;2023-05-11T13:17:56;99320.00;;;14.27;100.00
27984;BME280;15317;50.360;8.726;2023-05-11T13:23:05;99326.97;;;14.15;100.00
27984;BME280;15317;50.360;8.726;2023-05-11T13:28:08;99331.75;;;14.13;100.00
27984;BME280;15317;50.360;8.726;2023-05-11T13:33:13;99330.72;;;14.14;100.00
27984;BME280;15317;50.360;8.726;2023-05-11T13:38:16;99327.38;;;14.12;100.00
27984;BME280;15317;50.360;8.726;2023-05-11T13:43:20;99323.16;;;13.87;100.00
27984;BME280;15317;50.360;8.726;2023-05-11T13:48:25;99335.41;;;13.91;100.00
27984;BME280;15317;50.360;8.726;2023-05-11T13:53:28;99335.78;;;13.88;100.00
27984;BME280;15317;50.360;8.726;2023-05-11T13:58:31;99339.19;;;13.90;100.00
27984;BME280;15317;50.360;8.726;2023-05-11T14:03:38;99338.00;;;13.69;100.00
27984;BME280;15317;50.360;8.726;2023-05-11T14:08:41;99347.22;;;13.68;100.00
27984;BME280;15317;50.360;8.726;2023-05-11T14:13:46;99344.47;;;13.45;100.00
27984;BME280;15317;50.360;8.726;2023-05-11T14:18:51;99345.94;;;13.56;100.00
27984;BME280;15317;50.360;8.726;2023-05-11T14:23:54;99338.34;;;13.66;100.00
27984;BME280;15317;50.360;8.726;2023-05-11T14:29:13;99340.72;;;13.69;100.00
27984;BME280;15317;50.360;8.726;2023-05-11T14:34:18;99341.91;;;13.90;100.00
27984;BME280;15317;50.360;8.726;2023-05-11T14:39:21;99348.94;;;14.21;100.00
27984;BME280;15317;50.360;8.726;2023-05-11T14:44:24;99339.84;;;14.44;100.00
27984;BME280;15317;50.360;8.726;2023-05-11T14:49:29;99318.56;;;14.39;100.00
27984;BME280;15317;50.360;8.726;2023-05-11T14:54:33;99313.91;;;14.40;100.00
27984;BME280;15317;50.360;8.726;2023-05-11T14:59:37;99308.66;;;14.38;100.00
27984;BME280;15317;50.360;8.726;2023-05-11T15:05:00;99322.31;;;14.38;100.00
27984;BME280;15317;50.360;8.726;2023-05-11T15:10:04;99332.53;;;14.36;100.00
27984;BME280;15317;50.360;8.726;2023-05-11T15:15:08;99324.47;;;14.43;100.00
27984;BME280;15317;50.360;8.726;2023-05-11T15:20:13;99319.97;;;14.50;100.00
27984;BME280;15317;50.360;8.726;2023-05-11T15:25:16;99317.72;;;14.39;100.00
27984;BME280;15317;50.360;8.726;2023-05-11T15:30:20;99314.41;;;14.43;100.00
27984;BME280;15317;50.360;8.726;2023-05-11T15:35:25;99308.94;;;14.43;100.00
27984;BME280;15317;50.360;8.726;2023-05-11T15:40:28;99310.41;;;14.31;100.00
27984;BME280;15317;50.360;8.726;2023-05-11T15:45:31;99302.34;;;14.38;100.00
27984;BME280;15317;50.360;8.726;2023-05-11T15:50:36;99298.47;;;14.32;100.00
27984;BME280;15317;50.360;8.726;2023-05-11T15:55:40;99314.94;;;14.24;100.00
27984;BME280;15317;50.360;8.726;2023-05-11T16:00:46;99324.63;;;14.27;100.00
27984;BME280;15317;50.360;8.726;2023-05-11T16:05:51;99318.41;;;14.18;100.00
27984;BME280;15317;50.360;8.726;2023-05-11T16:10:54;99323.56;;;14.13;100.00
27984;BME280;15317;50.360;8.726;2023-05-11T16:15:58;99316.88;;;14.01;100.00
27984;BME280;15317;50.360;8.726;2023-05-11T16:21:03;99320.00;;;13.98;100.00
27984;BME280;15317;50.360;8.726;2023-05-11T16:26:06;99310.19;;;14.03;100.00
27984;BME280;15317;50.360;8.726;2023-05-11T16:31:09;99310.53;;;13.85;100.00
27984;BME280;15317;50.360;8.726;2023-05-11T16:36:14;99312.75;;;13.67;100.00
27984;BME280;15317;50.360;8.726;2023-05-11T16:41:17;99315.13;;;13.70;100.00
27984;BME280;15317;50.360;8.726;2023-05-11T16:46:20;99325.03;;;13.71;100.00
27984;BME280;15317;50.360;8.726;2023-05-11T16:51:25;99321.69;;;13.61;100.00
27984;BME280;15317;50.360;8.726;2023-05-11T16:56:29;99325.81;;;13.57;100.00
27984;BME280;15317;50.360;8.726;2023-05-11T17:01:32;99327.19;;;13.53;100.00
27984;BME280;15317;50.360;8.726;2023-05-11T17:06:37;99323.78;;;13.51;100.00
27984;BME280;15317;50.360;8.726;2023-05-11T17:11:40;99322.13;;;13.50;100.00
27984;BME280;15317;50.360;8.726;2023-05-11T17:16:43;99315.69;;;13.43;100.00
27984;BME280;15317;50.360;8.726;2023-05-11T17:21:48;99325.25;;;13.39;100.00
27984;BME280;15317;50.360;8.726;2023-05-11T17:26:51;99317.50;;;13.28;100.00
27984;BME280;15317;50.360;8.726;2023-05-11T17:31:55;99322.66;;;13.23;100.00
27984;BME280;15317;50.360;8.726;2023-05-11T17:36:59;99329.16;;;13.22;100.00
27984;BME280;15317;50.360;8.726;2023-05-11T17:42:03;99334.94;;;13.19;100.00
27984;BME280;15317;50.360;8.726;2023-05-11T17:47:06;99342.28;;;13.10;100.00
27984;BME280;15317;50.360;8.726;2023-05-11T17:52:11;99331.25;;;13.03;100.00
27984;BME280;15317;50.360;8.726;2023-05-11T17:57:14;99331.63;;;13.00;100.00
27984;BME280;15317;50.360;8.726;2023-05-11T18:02:17;99328.38;;;12.97;100.00
27984;BME280;15317;50.360;8.726;2023-05-11T18:07:22;99335.41;;;12.91;100.00
27984;BME280;15317;50.360;8.726;2023-05-11T18:12:26;99346.88;;;12.87;100.00
27984;BME280;15317;50.360;8.726;2023-05-11T18:17:31;99347.75;;;12.79;100.00
27984;BME280;15317;50.360;8.726;2023-05-11T18:22:36;99351.53;;;12.70;100.00
27984;BME280;15317;50.360;8.726;2023-05-11T18:27:39;99356.34;;;12.60;100.00
27984;BME280;15317;50.360;8.726;2023-05-11T18:32:42;99357.69;;;12.64;100.00
27984;BME280;15317;50.360;8.726;2023-05-11T18:37:48;99353.66;;;12.52;100.00
27984;BME280;15317;50.360;8.726;2023-05-11T18:42:51;99361.13;;;12.50;100.00
27984;BME280;15317;50.360;8.726;2023-05-11T18:47:54;99364.88;;;12.49;100.00
27984;BME280;15317;50.360;8.726;2023-05-11T18:52:59;99369.00;;;12.45;100.00
27984;BME280;15317;50.360;8.726;2023-05-11T18:58:03;99372.25;;;12.40;100.00
27984;BME280;15317;50.360;8.726;2023-05-11T19:03:06;99377.00;;;12.38;100.00
27984;BME280;15317;50.360;8.726;2023-05-11T19:08:11;99375.84;;;12.33;100.00
27984;BME280;15317;50.360;8.726;2023-05-11T19:13:14;99383.69;;;12.27;100.00
27984;BME280;15317;50.360;8.726;2023-05-11T19:18:17;99384.03;;;12.24;100.00
27984;BME280;15317;50.360;8.726;2023-05-11T19:23:22;99384.56;;;12.20;100.00
27984;BME280;15317;50.360;8.726;2023-05-11T19:28:26;99385.91;;;12.16;100.00
27984;BME280;15317;50.360;8.726;2023-05-11T19:33:31;99379.97;;;12.12;100.00
27984;BME280;15317;50.360;8.726;2023-05-11T19:38:35;99386.09;;;12.06;100.00
27984;BME280;15317;50.360;8.726;2023-05-11T19:43:38;99387.81;;;11.99;100.00
27984;BME280;15317;50.360;8.726;2023-05-11T19:48:41;99391.38;;;12.00;100.00
27984;BME280;15317;50.360;8.726;2023-05-11T19:53:46;99397.69;;;12.00;100.00
27984;BME280;15317;50.360;8.726;2023-05-11T19:58:49;99406.88;;;11.99;100.00
27984;BME280;15317;50.360;8.726;2023-05-11T20:03:52;99400.03;;;11.95;100.00
27984;BME280;15317;50.360;8.726;2023-05-11T20:08:57;99412.31;;;11.99;100.00
27984;BME280;15317;50.360;8.726;2023-05-11T20:14:00;99411.78;;;11.96;100.00
27984;BME280;15317;50.360;8.726;2023-05-11T20:19:03;99417.06;;;11.97;100.00
27984;BME280;15317;50.360;8.726;2023-05-11T20:24:07;99408.91;;;11.97;100.00
27984;BME280;15317;50.360;8.726;2023-05-11T20:29:10;99406.34;;;11.96;100.00
27984;BME280;15317;50.360;8.726;2023-05-11T20:34:14;99412.47;;;11.98;100.00
27984;BME280;15317;50.360;8.726;2023-05-11T20:39:20;99402.59;;;11.97;100.00
27984;BME280;15317;50.360;8.726;2023-05-11T20:44:23;99405.16;;;11.98;100.00
27984;BME280;15317;50.360;8.726;2023-05-11T20:49:27;99397.31;;;11.95;100.00
27984;BME280;15317;50.360;8.726;2023-05-11T20:54:41;99398.34;;;11.94;100.00
27984;BME280;15317;50.360;8.726;2023-05-11T20:59:44;99394.97;;;11.92;100.00
27984;BME280;15317;50.360;8.726;2023-05-11T21:04:50;99390.16;;;11.94;100.00
27984;BME280;15317;50.360;8.726;2023-05-11T21:09:55;99393.41;;;11.90;100.00
27984;BME280;15317;50.360;8.726;2023-05-11T21:14:59;99377.94;;;11.90;100.00
27984;BME280;15317;50.360;8.726;2023-05-11T21:20:03;99378.09;;;11.88;100.00
27984;BME280;15317;50.360;8.726;2023-05-11T21:25:08;99369.78;;;11.90;100.00
27984;BME280;15317;50.360;8.726;2023-05-11T21:30:11;99368.06;;;11.89;100.00
27984;BME280;15317;50.360;8.726;2023-05-11T21:35:15;99360.59;;;11.83;100.00
27984;BME280;15317;50.360;8.726;2023-05-11T21:40:19;99362.47;;;11.82;100.00
27984;BME280;15317;50.360;8.726;2023-05-11T21:45:23;99369.59;;;11.83;100.00
27984;BME280;15317;50.360;8.726;2023-05-11T21:50:26;99372.84;;;11.87;100.00
27984;BME280;15317;50.360;8.726;2023-05-11T21:55:30;99371.81;;;11.88;100.00
27984;BME280;15317;50.360;8.726;2023-05-11T22:00:34;99379.97;;;11.88;100.00
27984;BME280;15317;50.360;8.726;2023-05-11T22:05:38;99374.19;;;11.91;100.00
27984;BME280;15317;50.360;8.726;2023-05-11T22:10:43;99378.63;;;11.92;100.00
27984;BME280;15317;50.360;8.726;2023-05-11T22:15:46;99371.47;;;11.91;100.00
27984;BME280;15317;50.360;8.726;2023-05-11T22:20:49;99372.66;;;11.88;100.00
27984;BME280;15317;50.360;8.726;2023-05-11T22:25:54;99372.16;;;11.93;100.00
27984;BME280;15317;50.360;8.726;2023-05-11T22:30:57;99375.22;;;11.90;100.00
27984;BME280;15317;50.360;8.726;2023-05-11T22:36:01;99380.66;;;11.90;100.00
27984;BME280;15317;50.360;8.726;2023-05-11T22:41:05;99374.38;;;11.90;100.00
27984;BME280;15317;50.360;8.726;2023-05-11T22:46:08;99392.72;;;11.87;100.00
27984;BME280;15317;50.360;8.726;2023-05-11T22:51:12;99397.66;;;11.84;100.00
27984;BME280;15317;50.360;8.726;2023-05-11T22:56:16;99402.78;;;11.87;100.00
27984;BME280;15317;50.360;8.726;2023-05-11T23:01:21;99395.47;;;11.79;100.00
27984;BME280;15317;50.360;8.726;2023-05-11T23:06:24;99389.81;;;11.73;100.00
27984;BME280;15317;50.360;8.726;2023-05-11T23:11:29;99395.28;;;11.73;100.00
27984;BME280;15317;50.360;8.726;2023-05-11T23:16:33;99386.09;;;11.74;100.00
27984;BME280;15317;50.360;8.726;2023-05-11T23:21:36;99386.09;;;11.74;100.00
27984;BME280;15317;50.360;8.726;2023-05-11T23:26:41;99390.84;;;11.72;100.00
27984;BME280;15317;50.360;8.726;2023-05-11T23:31:44;99385.41;;;11.64;100.00
27984;BME280;15317;50.360;8.726;2023-05-11T23:36:47;99383.19;;;11.59;100.00
27984;BME280;15317;50.360;8.726;2023-05-11T23:41:52;99382.31;;;11.42;100.00
27984;BME280;15317;50.360;8.726;2023-05-11T23:46:56;99374.50;;;11.39;100.00
27984;BME280;15317;50.360;8.726;2023-05-11T23:51:59;99373.97;;;11.36;100.00
27984;BME280;15317;50.360;8.726;2023-05-11T23:57:04;99370.94;;;11.39;100.00
